createdAt,value
2022-12-11T00:01:45.567Z,131.70
2022-12-11T00:04:10.250Z,137.80
2022-12-11T00:06:33.547Z,108.03
2022-12-11T00:08:57.245Z,100.23
2022-12-11T00:11:21.662Z,91.10
2022-12-11T00:13:45.288Z,76.10
2022-12-11T00:16:09.477Z,71.30
2022-12-11T00:18:32.909Z,53.97
2022-12-11T00:21:01.669Z,53.93
2022-12-11T00:23:24.957Z,56.80
2022-12-11T00:25:49.650Z,62.00
2022-12-11T00:28:13.702Z,50.37
2022-12-11T00:30:40.774Z,54.03
2022-12-11T00:33:04.155Z,55.87
2022-12-11T00:35:27.452Z,52.83
2022-12-11T00:37:52.125Z,66.33
2022-12-11T00:40:15.367Z,63.50
2022-12-11T00:42:38.677Z,54.20
2022-12-11T00:45:01.887Z,60.00
2022-12-11T00:47:25.208Z,61.23
2022-12-11T00:49:50.199Z,63.03
2022-12-11T00:52:13.598Z,63.43
2022-12-11T00:54:38.278Z,73.90
2022-12-11T00:57:01.551Z,83.70
2022-12-11T00:59:24.934Z,84.20
2022-12-11T01:01:48.321Z,85.57
2022-12-11T01:04:11.581Z,98.27
2022-12-11T01:06:34.808Z,101.90
2022-12-11T01:09:12.445Z,100.33
2022-12-11T01:11:37.621Z,104.83
2022-12-11T01:14:00.956Z,107.43
2022-12-11T01:16:24.240Z,111.30
2022-12-11T01:18:47.639Z,116.17
2022-12-11T01:21:13.927Z,104.70
2022-12-11T01:23:37.835Z,111.10
2022-12-11T01:26:08.101Z,103.57
2022-12-11T01:28:32.870Z,101.27
2022-12-11T01:30:56.234Z,97.00
2022-12-11T01:33:19.490Z,95.70
2022-12-11T01:35:42.829Z,90.00
2022-12-11T01:38:06.223Z,77.30
2022-12-11T01:40:29.779Z,80.40
2022-12-11T01:42:53.128Z,81.67
2022-12-11T01:45:44.681Z,78.77
2022-12-11T01:48:12.858Z,82.17
2022-12-11T01:50:43.274Z,81.67
2022-12-11T01:53:10.320Z,88.17
2022-12-11T01:55:34.839Z,81.87
2022-12-11T01:57:58.215Z,82.37
2022-12-11T02:00:21.865Z,79.30
2022-12-11T02:02:47.209Z,79.13
2022-12-11T02:05:11.015Z,90.60
2022-12-11T02:07:41.303Z,80.67
2022-12-11T02:10:06.076Z,85.50
2022-12-11T02:12:38.529Z,85.50
2022-12-11T02:15:11.915Z,81.67
2022-12-11T02:17:42.194Z,81.80
2022-12-11T02:20:13.132Z,79.47
2022-12-11T02:23:14.214Z,74.17
2022-12-11T02:25:48.489Z,84.43
2022-12-11T02:28:20.228Z,85.70
2022-12-11T02:30:46.543Z,87.83
2022-12-11T02:33:15.012Z,86.67
2022-12-11T02:35:43.365Z,87.70
2022-12-11T02:38:13.605Z,89.57
2022-12-11T02:40:41.294Z,85.30
2022-12-11T02:43:08.420Z,88.03
2022-12-11T02:45:35.205Z,89.93
2022-12-11T02:48:02.698Z,88.47
2022-12-11T02:50:27.509Z,86.93
2022-12-11T02:52:55.770Z,83.97
2022-12-11T02:55:20.684Z,86.80
2022-12-11T02:57:49.153Z,86.10
2022-12-11T03:00:13.981Z,77.73
2022-12-11T03:02:39.152Z,83.13
2022-12-11T03:05:02.646Z,80.17
2022-12-11T03:07:29.634Z,82.53
2022-12-11T03:09:54.832Z,80.00
2022-12-11T03:12:22.285Z,83.17
2022-12-11T03:14:45.928Z,79.90
2022-12-11T03:17:16.100Z,81.50
2022-12-11T03:19:45.130Z,79.77
2022-12-11T03:22:13.805Z,79.57
2022-12-11T03:24:42.634Z,72.03
2022-12-11T03:27:17.022Z,76.77
2022-12-11T03:29:49.323Z,77.20
2022-12-11T03:32:22.987Z,71.00
2022-12-11T03:34:58.580Z,67.13
2022-12-11T03:37:24.381Z,74.23
2022-12-11T03:39:52.734Z,70.40
2022-12-11T03:42:17.885Z,68.73
2022-12-11T03:44:42.495Z,69.77
2022-12-11T03:47:09.599Z,63.63
2022-12-11T03:49:38.157Z,70.37
2022-12-11T03:52:06.052Z,65.40
2022-12-11T03:54:30.240Z,66.87
2022-12-11T03:56:57.907Z,63.57
2022-12-11T03:59:21.318Z,68.07
2022-12-11T04:01:44.631Z,65.40
2022-12-11T04:04:08.252Z,59.30
2022-12-11T04:06:31.855Z,65.70
2022-12-11T04:08:56.550Z,64.70
2022-12-11T04:11:39.499Z,57.50
2022-12-11T04:14:21.502Z,58.80
2022-12-11T04:16:44.888Z,61.37
2022-12-11T04:19:25.696Z,63.13
2022-12-11T04:22:06.608Z,56.87
2022-12-11T04:24:31.240Z,59.60
2022-12-11T04:26:54.469Z,55.77
2022-12-11T04:29:17.803Z,58.10
2022-12-11T04:31:41.346Z,55.83
2022-12-11T04:34:04.633Z,56.90
2022-12-11T04:36:27.829Z,55.37
2022-12-11T04:38:51.313Z,62.40
2022-12-11T04:41:17.556Z,58.47
2022-12-11T04:43:41.090Z,52.80
2022-12-11T04:46:07.195Z,57.87
2022-12-11T04:48:30.725Z,51.30
2022-12-11T04:50:54.122Z,53.63
2022-12-11T04:53:17.324Z,55.53
2022-12-11T04:55:40.962Z,59.00
2022-12-11T04:58:05.684Z,56.30
2022-12-11T05:00:28.935Z,58.30
2022-12-11T05:02:52.235Z,56.13
2022-12-11T05:05:15.504Z,60.53
2022-12-11T05:07:39.692Z,59.33
2022-12-11T05:10:03.240Z,56.83
2022-12-11T05:12:26.699Z,53.50
2022-12-11T05:14:53.634Z,63.50
2022-12-11T05:17:16.850Z,59.70
2022-12-11T05:19:40.226Z,49.60
2022-12-11T05:22:03.479Z,59.73
2022-12-11T05:24:26.709Z,60.77
2022-12-11T05:26:49.978Z,56.50
2022-12-11T05:29:13.281Z,59.23
2022-12-11T05:31:37.992Z,51.87
2022-12-11T05:34:01.347Z,58.53
2022-12-11T05:36:27.287Z,57.77
2022-12-11T05:38:50.842Z,56.10
2022-12-11T05:41:16.811Z,60.57
2022-12-11T05:43:40.493Z,54.87
2022-12-11T05:46:09.194Z,53.40
2022-12-11T05:48:33.915Z,55.90
2022-12-11T05:51:01.735Z,60.80
2022-12-11T05:53:25.324Z,56.40
2022-12-11T05:55:48.658Z,58.50
2022-12-11T05:58:12.294Z,53.33
2022-12-11T06:00:36.276Z,63.23
2022-12-11T06:02:59.848Z,57.70
2022-12-11T06:05:24.540Z,59.87
2022-12-11T06:07:47.818Z,59.70
2022-12-11T06:10:11.727Z,58.27
2022-12-11T06:12:34.971Z,61.30
2022-12-11T06:14:58.269Z,53.37
2022-12-11T06:17:21.570Z,56.53
2022-12-11T06:19:44.822Z,54.80
2022-12-11T06:22:09.707Z,58.27
2022-12-11T06:24:32.864Z,54.80
2022-12-11T06:26:56.246Z,48.13
2022-12-11T06:29:19.462Z,48.10
2022-12-11T06:31:43.087Z,57.87
2022-12-11T06:34:06.444Z,49.60
2022-12-11T06:36:29.815Z,53.13
2022-12-11T06:38:56.404Z,55.20
2022-12-11T06:41:20.029Z,51.97
2022-12-11T06:43:44.548Z,53.27
2022-12-11T06:46:09.588Z,53.73
2022-12-11T06:48:33.194Z,52.73
2022-12-11T06:50:56.438Z,51.03
2022-12-11T06:53:19.723Z,48.00
2022-12-11T06:55:44.809Z,48.87
2022-12-11T06:58:08.137Z,56.27
2022-12-11T07:00:31.489Z,59.23
2022-12-11T07:02:55.008Z,51.83
2022-12-11T07:05:18.662Z,50.07
2022-12-11T07:07:42.028Z,54.77
2022-12-11T07:10:08.402Z,54.63
2022-12-11T07:12:33.625Z,54.60
2022-12-11T07:14:56.957Z,54.50
2022-12-11T07:17:20.219Z,45.53
2022-12-11T07:19:43.734Z,50.57
2022-12-11T07:22:07.069Z,58.20
2022-12-11T07:24:30.425Z,55.07
2022-12-11T07:26:53.993Z,50.37
2022-12-11T07:29:18.812Z,54.87
2022-12-11T07:31:42.656Z,54.47
2022-12-11T07:34:08.594Z,60.73
2022-12-11T07:36:33.517Z,56.23
2022-12-11T07:38:57.577Z,53.73
2022-12-11T07:41:20.990Z,51.17
2022-12-11T07:43:49.808Z,52.30
2022-12-11T07:46:18.073Z,49.37
2022-12-11T07:48:43.205Z,52.23
2022-12-11T07:51:11.549Z,51.93
2022-12-11T07:53:34.829Z,51.40
2022-12-11T07:56:00.955Z,52.97
2022-12-11T07:58:24.498Z,49.10
2022-12-11T08:00:49.377Z,53.07
2022-12-11T08:03:14.434Z,48.17
2022-12-11T08:05:38.200Z,52.17
2022-12-11T08:08:01.503Z,50.40
2022-12-11T08:10:24.982Z,46.37
2022-12-11T08:12:48.322Z,46.60
2022-12-11T08:15:12.836Z,48.77
2022-12-11T08:17:39.973Z,47.57
2022-12-11T08:20:06.445Z,45.70
2022-12-11T08:22:30.180Z,45.23
2022-12-11T08:24:53.507Z,42.37
2022-12-11T08:27:16.766Z,40.37
2022-12-11T08:29:40.283Z,36.63
2022-12-11T08:32:07.632Z,36.83
2022-12-11T08:34:35.295Z,39.60
2022-12-11T08:36:59.887Z,40.67
2022-12-11T08:39:23.184Z,36.47
2022-12-11T08:41:46.416Z,35.23
2022-12-11T08:44:16.533Z,36.60
2022-12-11T08:46:40.455Z,39.90
2022-12-11T08:49:04.239Z,38.07
2022-12-11T08:51:30.288Z,36.90
2022-12-11T08:53:59.061Z,32.90
2022-12-11T08:56:23.643Z,34.17
2022-12-11T08:58:47.801Z,32.03
2022-12-11T09:01:14.228Z,34.97
2022-12-11T09:03:37.847Z,32.97
2022-12-11T09:06:01.211Z,34.30
2022-12-11T09:08:24.490Z,37.17
2022-12-11T09:10:49.374Z,32.73
2022-12-11T09:13:12.804Z,32.50
2022-12-11T09:15:36.304Z,32.63
2022-12-11T09:17:59.626Z,34.87
2022-12-11T09:20:22.893Z,38.53
2022-12-11T09:22:46.214Z,33.13
2022-12-11T09:25:10.766Z,29.93
2022-12-11T09:27:35.837Z,31.73
2022-12-11T09:29:59.074Z,34.33
2022-12-11T09:32:22.319Z,32.53
2022-12-11T09:34:45.872Z,32.37
2022-12-11T09:37:09.193Z,31.93
2022-12-11T09:39:32.519Z,33.87
2022-12-11T09:42:05.474Z,29.97
2022-12-11T09:44:39.653Z,32.60
2022-12-11T09:47:03.043Z,27.73
2022-12-11T09:49:40.264Z,28.53
2022-12-11T09:52:18.917Z,31.33
2022-12-11T09:54:51.952Z,34.47
2022-12-11T09:57:28.306Z,31.47
2022-12-11T10:00:11.276Z,32.30
2022-12-11T10:02:48.051Z,29.23
2022-12-11T10:05:19.500Z,31.80
2022-12-11T10:07:50.571Z,30.40
2022-12-11T10:10:24.007Z,27.70
2022-12-11T10:12:56.167Z,26.63
2022-12-11T10:15:36.005Z,27.23
2022-12-11T10:18:04.854Z,31.37
2022-12-11T10:20:36.412Z,31.20
2022-12-11T10:23:00.779Z,30.93
2022-12-11T10:25:28.842Z,29.60
2022-12-11T10:27:52.405Z,31.47
2022-12-11T10:30:20.213Z,34.97
2022-12-11T10:32:55.708Z,37.37
2022-12-11T10:35:28.147Z,32.47
2022-12-11T10:37:52.532Z,32.03
2022-12-11T10:40:17.136Z,33.50
2022-12-11T10:42:45.565Z,34.80
2022-12-11T10:45:16.726Z,31.60
2022-12-11T10:47:39.982Z,30.50
2022-12-11T10:50:06.160Z,33.97
2022-12-11T10:52:33.841Z,28.90
2022-12-11T10:55:01.633Z,32.37
2022-12-11T10:57:31.259Z,26.30
2022-12-11T10:59:54.763Z,31.40
2022-12-11T11:02:24.594Z,31.13
2022-12-11T11:04:48.246Z,31.83
2022-12-11T11:07:17.103Z,31.33
2022-12-11T11:09:41.062Z,25.07
2022-12-11T11:12:08.045Z,24.80
2022-12-11T11:14:31.631Z,29.27
2022-12-11T11:16:58.862Z,27.60
2022-12-11T11:19:26.425Z,27.10
2022-12-11T11:21:52.988Z,24.63
2022-12-11T11:24:30.051Z,26.70
2022-12-11T11:27:12.855Z,27.90
2022-12-11T11:29:38.032Z,27.37
2022-12-11T11:32:18.930Z,25.60
2022-12-11T11:34:43.127Z,28.10
2022-12-11T11:37:06.441Z,26.33
2022-12-11T11:39:38.763Z,33.40
2022-12-11T11:42:09.215Z,26.20
2022-12-11T11:44:37.096Z,28.10
2022-12-11T11:47:05.745Z,27.40
2022-12-11T11:49:46.036Z,30.63
2022-12-11T11:52:17.743Z,29.23
2022-12-11T11:54:50.647Z,31.63
2022-12-11T11:57:20.297Z,30.57
2022-12-11T11:59:50.247Z,30.57
2022-12-11T12:02:17.643Z,32.57
2022-12-11T12:04:41.038Z,35.53
2022-12-11T12:07:25.585Z,34.60
2022-12-11T12:09:56.885Z,31.77
2022-12-11T12:12:35.023Z,31.57
2022-12-11T12:15:22.094Z,33.87
2022-12-11T12:17:56.105Z,32.57
2022-12-11T12:20:30.927Z,37.13
2022-12-11T12:23:09.670Z,31.83
2022-12-11T12:25:41.939Z,34.27
2022-12-11T12:28:19.676Z,29.07
2022-12-11T12:30:59.561Z,25.80
2022-12-11T12:33:38.503Z,27.63
2022-12-11T12:36:15.607Z,30.10
2022-12-11T12:38:51.847Z,29.97
2022-12-11T12:41:22.732Z,30.23
2022-12-11T12:44:02.061Z,28.33
2022-12-11T12:46:40.776Z,31.23
2022-12-11T12:49:05.509Z,33.07
2022-12-11T12:51:30.046Z,30.70
2022-12-11T12:53:58.149Z,28.90
2022-12-11T12:56:24.039Z,30.40
2022-12-11T12:58:47.880Z,30.77
2022-12-11T13:01:19.318Z,29.87
2022-12-11T13:03:56.075Z,34.17
2022-12-11T13:06:35.936Z,33.47
2022-12-11T13:08:59.862Z,29.93
2022-12-11T13:11:35.000Z,32.07
2022-12-11T13:14:05.678Z,32.13
2022-12-11T13:16:38.087Z,27.50
2022-12-11T13:19:01.508Z,27.90
2022-12-11T13:21:32.289Z,28.27
2022-12-11T13:23:55.971Z,31.53
2022-12-11T13:26:32.788Z,28.03
2022-12-11T13:28:56.079Z,29.83
2022-12-11T13:31:35.826Z,28.80
2022-12-11T13:34:08.728Z,28.03
2022-12-11T13:36:34.776Z,25.23
2022-12-11T13:39:04.756Z,28.73
2022-12-11T13:41:31.259Z,31.27
2022-12-11T13:43:55.200Z,31.17
2022-12-11T13:46:26.320Z,34.30
2022-12-11T13:48:55.276Z,28.20
2022-12-11T13:51:22.014Z,30.93
2022-12-11T13:53:45.592Z,34.20
2022-12-11T13:56:18.224Z,31.87
2022-12-11T13:58:43.152Z,32.43
2022-12-11T14:01:11.203Z,29.37
2022-12-11T14:03:35.601Z,33.90
2022-12-11T14:05:59.019Z,33.73
2022-12-11T14:08:35.079Z,31.43
2022-12-11T14:10:58.830Z,36.00
2022-12-11T14:13:27.195Z,32.87
2022-12-11T14:15:52.530Z,31.57
2022-12-11T14:18:19.719Z,32.83
2022-12-11T14:20:43.646Z,33.03
2022-12-11T14:23:09.487Z,31.57
2022-12-11T14:25:33.001Z,36.47
2022-12-11T14:27:58.103Z,36.83
2022-12-11T14:30:28.242Z,33.30
2022-12-11T14:32:56.694Z,31.47
2022-12-11T14:35:30.880Z,30.17
2022-12-11T14:38:01.429Z,34.13
2022-12-11T14:40:32.850Z,32.17
2022-12-11T14:43:00.735Z,32.37
2022-12-11T14:45:32.370Z,37.27
2022-12-11T14:47:59.191Z,35.23
2022-12-11T14:50:27.341Z,34.57
2022-12-11T14:52:56.409Z,37.37
2022-12-11T14:55:24.468Z,32.90
2022-12-11T14:57:51.582Z,32.30
2022-12-11T15:00:27.760Z,35.30
2022-12-11T15:03:02.252Z,37.17
2022-12-11T15:05:25.877Z,39.53
2022-12-11T15:07:59.049Z,39.47
2022-12-11T15:10:31.313Z,38.13
2022-12-11T15:12:55.742Z,33.07
2022-12-11T15:15:19.840Z,36.43
2022-12-11T15:17:46.127Z,36.00
2022-12-11T15:20:25.974Z,38.00
2022-12-11T15:22:49.519Z,33.23
2022-12-11T15:25:21.201Z,35.33
2022-12-11T15:27:45.046Z,35.80
2022-12-11T15:30:28.337Z,35.93
2022-12-11T15:32:51.798Z,30.90
2022-12-11T15:35:27.361Z,30.97
2022-12-11T15:37:54.804Z,30.93
2022-12-11T15:40:18.598Z,34.00
2022-12-11T15:42:43.312Z,28.77
2022-12-11T15:45:08.406Z,30.10
2022-12-11T15:47:32.941Z,24.77
2022-12-11T15:50:00.039Z,26.23
2022-12-11T15:52:25.151Z,25.87
2022-12-11T15:54:48.443Z,43.40
2022-12-11T15:57:17.768Z,40.13
2022-12-11T15:59:41.194Z,32.33
2022-12-11T16:02:04.519Z,24.90
2022-12-11T16:04:27.935Z,23.17
2022-12-11T16:06:51.849Z,20.47
2022-12-11T16:09:16.396Z,25.97
2022-12-11T16:11:39.804Z,22.67
2022-12-11T16:14:04.369Z,21.30
2022-12-11T16:16:27.778Z,20.60
2022-12-11T16:18:51.407Z,20.70
2022-12-11T16:21:19.851Z,24.53
2022-12-11T16:23:44.849Z,23.57
2022-12-11T16:26:10.299Z,26.77
2022-12-11T16:28:33.890Z,23.67
2022-12-11T16:30:57.214Z,24.07
2022-12-11T16:33:20.574Z,24.80
2022-12-11T16:35:43.988Z,27.60
2022-12-11T16:38:07.829Z,26.77
2022-12-11T16:40:31.274Z,26.33
2022-12-11T16:42:55.915Z,24.23
2022-12-11T16:45:22.747Z,27.80
2022-12-11T16:47:46.168Z,29.80
2022-12-11T16:50:10.684Z,29.47
2022-12-11T16:52:34.357Z,29.10
2022-12-11T16:54:58.749Z,29.80
2022-12-11T16:57:22.603Z,26.93
2022-12-11T16:59:50.012Z,26.33
2022-12-11T17:02:13.380Z,25.80
2022-12-11T17:04:36.600Z,24.83
2022-12-11T17:07:00.002Z,24.87
2022-12-11T17:09:23.336Z,25.30
2022-12-11T17:11:46.660Z,26.97
2022-12-11T17:14:12.481Z,28.57
2022-12-11T17:16:37.134Z,25.17
2022-12-11T17:19:00.434Z,28.13
2022-12-11T17:21:24.812Z,26.17
2022-12-11T17:23:48.106Z,26.57
2022-12-11T17:26:11.550Z,26.33
2022-12-11T17:28:34.870Z,22.57
2022-12-11T17:30:59.265Z,21.90
2022-12-11T17:33:24.598Z,22.73
2022-12-11T17:35:47.874Z,19.43
2022-12-11T17:38:11.467Z,23.60
2022-12-11T17:40:34.871Z,25.10
2022-12-11T17:42:58.242Z,25.50
2022-12-11T17:45:21.531Z,20.67
2022-12-11T17:47:44.911Z,20.77
2022-12-11T17:50:10.809Z,22.43
2022-12-11T17:52:36.416Z,23.77
2022-12-11T17:55:01.818Z,23.00
2022-12-11T17:57:25.242Z,27.67
2022-12-11T17:59:48.709Z,27.30
2022-12-11T18:02:12.108Z,24.50
2022-12-11T18:04:35.694Z,22.70
2022-12-11T18:07:00.500Z,26.20
2022-12-11T18:09:23.894Z,27.20
2022-12-11T18:11:47.156Z,26.60
2022-12-11T18:14:16.689Z,26.37
2022-12-11T18:16:41.249Z,30.83
2022-12-11T18:19:05.223Z,29.43
2022-12-11T18:21:32.249Z,32.27
2022-12-11T18:23:57.035Z,26.67
2022-12-11T18:26:21.494Z,26.10
2022-12-11T18:28:45.656Z,28.07
2022-12-11T18:31:09.785Z,22.90
2022-12-11T18:33:33.234Z,25.03
2022-12-11T18:35:56.602Z,25.20
2022-12-11T18:38:20.005Z,33.13
2022-12-11T18:40:45.223Z,27.97
2022-12-11T18:43:08.482Z,27.37
2022-12-11T18:45:32.785Z,26.73
2022-12-11T18:47:56.708Z,25.83
2022-12-11T18:50:22.224Z,27.50
2022-12-11T18:52:45.602Z,27.27
2022-12-11T18:55:10.013Z,25.77
2022-12-11T18:57:34.903Z,25.97
2022-12-11T19:00:02.412Z,29.30
2022-12-11T19:02:25.788Z,28.30
2022-12-11T19:04:49.042Z,27.93
2022-12-11T19:07:12.782Z,26.57
2022-12-11T19:09:38.209Z,22.30
2022-12-11T19:12:02.119Z,24.17
2022-12-11T19:14:26.700Z,25.20
2022-12-11T19:16:50.751Z,26.57
2022-12-11T19:19:17.955Z,23.47
2022-12-11T19:21:41.654Z,26.10
2022-12-11T19:24:06.292Z,25.77
2022-12-11T19:26:29.737Z,27.27
2022-12-11T19:28:53.813Z,28.63
2022-12-11T19:31:21.739Z,30.17
2022-12-11T19:33:46.798Z,31.67
2022-12-11T19:36:15.254Z,27.13
2022-12-11T19:38:41.391Z,24.57
2022-12-11T19:41:07.760Z,29.70
2022-12-11T19:43:31.103Z,32.77
2022-12-11T19:45:54.438Z,29.97
2022-12-11T19:48:19.083Z,26.67
2022-12-11T19:50:42.616Z,29.43
2022-12-11T19:53:06.313Z,28.50
2022-12-11T19:55:29.583Z,30.30
2022-12-11T19:57:52.845Z,29.73
2022-12-11T20:00:17.089Z,27.73
2022-12-11T20:02:40.638Z,27.80
2022-12-11T20:05:06.027Z,29.63
2022-12-11T20:07:30.805Z,28.93
2022-12-11T20:09:54.092Z,32.10
2022-12-11T20:12:17.429Z,33.83
2022-12-11T20:14:40.815Z,28.70
2022-12-11T20:17:13.973Z,39.90
2022-12-11T20:19:37.967Z,26.23
2022-12-11T20:22:02.622Z,26.30
2022-12-11T20:24:26.203Z,27.07
2022-12-11T20:26:49.779Z,24.63
2022-12-11T20:29:14.125Z,27.47
2022-12-11T20:31:38.208Z,28.43
2022-12-11T20:34:01.423Z,27.03
2022-12-11T20:36:26.157Z,26.97
2022-12-11T20:38:51.403Z,28.33
2022-12-11T20:41:18.971Z,31.00
2022-12-11T20:43:43.242Z,30.37
2022-12-11T20:46:07.458Z,30.87
2022-12-11T20:48:30.858Z,30.63
2022-12-11T20:50:54.150Z,26.37
2022-12-11T20:53:17.412Z,31.13
2022-12-11T20:55:43.517Z,31.30
2022-12-11T20:58:06.799Z,32.90
2022-12-11T21:00:30.111Z,30.33
2022-12-11T21:02:53.582Z,28.93
2022-12-11T21:05:16.867Z,27.67
2022-12-11T21:07:40.095Z,31.03
2022-12-11T21:10:03.446Z,30.30
2022-12-11T21:12:31.565Z,33.83
2022-12-11T21:14:55.267Z,32.87
2022-12-11T21:17:18.466Z,30.93
2022-12-11T21:19:41.850Z,33.53
2022-12-11T21:22:06.579Z,33.30
2022-12-11T21:24:31.423Z,32.73
2022-12-11T21:26:56.435Z,35.67
2022-12-11T21:29:21.478Z,34.27
2022-12-11T21:31:45.698Z,30.23
2022-12-11T21:34:09.251Z,33.97
2022-12-11T21:36:32.905Z,38.53
2022-12-11T21:38:56.236Z,33.67
2022-12-11T21:41:22.541Z,37.67
2022-12-11T21:44:49.817Z,32.47
2022-12-11T21:46:32.502Z,38.43
2022-12-11T21:48:56.225Z,33.40
2022-12-11T21:51:24.219Z,35.57
2022-12-11T21:53:47.856Z,36.73
2022-12-11T21:56:14.151Z,36.23
2022-12-11T21:58:38.394Z,34.40
2022-12-11T22:01:01.871Z,39.43
2022-12-11T22:03:26.581Z,36.90
2022-12-11T22:05:49.817Z,37.43
2022-12-11T22:08:13.047Z,36.47
2022-12-11T22:10:36.384Z,39.70
2022-12-11T22:12:59.846Z,36.23
2022-12-11T22:15:23.446Z,33.83
2022-12-11T22:17:48.647Z,40.13
2022-12-11T22:20:14.598Z,34.37
2022-12-11T22:22:37.900Z,34.50
2022-12-11T22:25:01.425Z,35.93
2022-12-11T22:27:24.722Z,37.30
2022-12-11T22:29:50.681Z,39.20
2022-12-11T22:32:14.045Z,40.07
2022-12-11T22:34:37.321Z,37.50
2022-12-11T22:37:02.010Z,37.43
2022-12-11T22:39:25.537Z,37.50
2022-12-11T22:41:48.893Z,39.57
2022-12-11T22:44:17.280Z,39.40
2022-12-11T22:46:43.127Z,34.07
2022-12-11T22:49:10.245Z,34.77
2022-12-11T22:51:33.714Z,37.83
2022-12-11T22:53:59.369Z,37.30
2022-12-11T22:56:22.772Z,33.23
2022-12-11T22:58:46.052Z,37.80
2022-12-11T23:01:12.692Z,39.03
2022-12-11T23:03:36.006Z,37.43
2022-12-11T23:06:04.866Z,34.93
2022-12-11T23:08:28.656Z,38.23
2022-12-11T23:10:53.428Z,38.07
2022-12-11T23:13:16.776Z,38.17
2022-12-11T23:15:40.036Z,39.60
2022-12-11T23:18:03.575Z,39.87
2022-12-11T23:20:27.020Z,37.47
2022-12-11T23:22:50.273Z,37.93
2022-12-11T23:25:15.085Z,38.30
2022-12-11T23:27:40.758Z,37.27
2022-12-11T23:30:04.884Z,40.30
2022-12-11T23:32:28.194Z,41.77
2022-12-11T23:34:51.537Z,43.53
2022-12-11T23:37:15.413Z,43.23
2022-12-11T23:39:38.702Z,38.40
2022-12-11T23:42:02.034Z,41.77
2022-12-11T23:44:26.610Z,45.60
2022-12-11T23:46:49.926Z,44.73
2022-12-11T23:49:13.158Z,45.77
2022-12-11T23:51:38.409Z,42.53
2022-12-11T23:54:01.716Z,41.20
2022-12-11T23:56:27.355Z,40.20
2022-12-11T23:58:51.048Z,43.67
